Terminal Aerodrome Forecast
Issued by NWS

Home | Current Version | Previous Version | Graphics & Text | Print | Product List | Glossary On
Versions: 1 2 3 4 5 6 7 8 9 10 11 12 13 14 15 16 17 18 19 20 21 22 23
571
FTUS43 KABR 251120
TAFPIR
TAF
KPIR 251120Z 2512/2612 12007KT 3/4SM BR OVC002
     FM251400 13009KT 3SM BR OVC020
     FM251600 14009KT P6SM SCT100
     FM261100 11007KT P6SM OVC030=

USA.gov is the U.S. government's official web portal to all federal, state and local government web resources and services.